Time;durP1;ratioP1;P1;durP2;ratioP2;P2;SDS_P1;SDS_P2;PMS_P1;PMS_P2;Temp;Humidity;BMP_temperature;BMP_pressure;BME280_temperature;BME280_humidity;BME280_pressure;Samples;Min_cycle;Max_cycle;Signal;HPM_P1;HPM_P2
2021/01/19 00:02:19;;;;;;;12.17;8.83;;;6.10;99.90;;;;;;5023414;28;20754;-73
2021/01/19 00:05:04;;;;;;;12.50;9.00;;;6.00;99.90;;;;;;5034988;28;20628;-73
2021/01/19 00:07:49;;;;;;;12.97;8.63;;;6.00;99.90;;;;;;5008046;28;20679;-73
2021/01/19 00:10:34;;;;;;;14.20;9.00;;;6.00;99.90;;;;;;5005667;28;20722;-72
2021/01/19 00:13:20;;;;;;;16.27;8.60;;;5.90;99.90;;;;;;5003451;28;21050;-72
2021/01/19 00:16:05;;;;;;;11.97;8.90;;;6.00;99.90;;;;;;5004068;28;20715;-73
2021/01/19 00:18:57;;;;;;;12.00;9.00;;;6.00;99.90;;;;;;5003879;28;20584;-72
2021/01/19 00:21:44;;;;;;;11.03;8.87;;;6.00;99.90;;;;;;5006468;28;20667;-73
2021/01/19 00:24:29;;;;;;;13.80;8.37;;;6.10;99.90;;;;;;4998531;28;21082;-73
2021/01/19 00:27:13;;;;;;;11.77;8.73;;;6.00;99.90;;;;;;4996522;28;20857;-73
2021/01/19 00:29:57;;;;;;;13.83;9.00;;;6.00;99.90;;;;;;4990757;28;20584;-73
2021/01/19 00:32:42;;;;;;;14.70;9.40;;;6.10;99.90;;;;;;5008225;28;20650;-73
2021/01/19 00:35:26;;;;;;;13.50;9.00;;;6.00;99.90;;;;;;4998833;28;20743;-73
2021/01/19 00:38:10;;;;;;;12.60;8.90;;;6.10;99.90;;;;;;5007315;28;20662;-73
2021/01/19 00:40:55;;;;;;;12.20;8.83;;;6.10;99.90;;;;;;4999661;28;20674;-73
2021/01/19 00:43:39;;;;;;;13.03;9.03;;;6.20;99.90;;;;;;5002320;28;21267;-73
2021/01/19 00:46:26;;;;;;;16.73;10.30;;;6.20;99.90;;;;;;5008347;28;20784;-73
2021/01/19 00:49:11;;;;;;;15.10;10.30;;;6.10;99.90;;;;;;5000812;28;20601;-72
2021/01/19 00:51:55;;;;;;;17.73;10.67;;;6.10;99.90;;;;;;5006399;28;21220;-73
2021/01/19 00:54:40;;;;;;;16.87;10.80;;;6.20;99.90;;;;;;5002565;28;20631;-72
2021/01/19 00:57:24;;;;;;;14.23;11.87;;;6.10;99.90;;;;;;5007179;28;20583;-73
2021/01/19 01:00:13;;;;;;;15.97;11.63;;;6.00;99.90;;;;;;5001063;28;20619;-73
2021/01/19 01:02:58;;;;;;;15.83;10.80;;;6.00;99.90;;;;;;5003489;28;20731;-73
2021/01/19 01:05:44;;;;;;;14.73;11.23;;;6.10;99.90;;;;;;4993646;28;20644;-73
2021/01/19 01:08:32;;;;;;;21.33;12.90;;;6.00;99.90;;;;;;5004169;28;20600;-73
2021/01/19 01:11:19;;;;;;;18.93;12.30;;;6.00;99.90;;;;;;5000872;28;20667;-73
2021/01/19 01:14:04;;;;;;;17.20;13.17;;;6.10;99.90;;;;;;4991654;28;20640;-73
2021/01/19 01:16:49;;;;;;;16.90;12.93;;;6.10;99.90;;;;;;5010731;28;20619;-73
2021/01/19 01:19:35;;;;;;;17.20;13.90;;;6.10;99.90;;;;;;4997788;28;21212;-73
2021/01/19 01:22:20;;;;;;;19.17;12.90;;;6.10;99.90;;;;;;5015767;28;20793;-73
2021/01/19 01:25:05;;;;;;;20.17;14.97;;;6.00;99.90;;;;;;4996157;28;20627;-73
2021/01/19 01:27:50;;;;;;;18.20;13.60;;;6.00;99.90;;;;;;5043675;22;21377;-63
2021/01/19 01:30:35;;;;;;;19.60;14.43;;;6.10;99.90;;;;;;5020061;28;20673;-64
2021/01/19 01:33:19;;;;;;;18.70;14.73;;;6.10;99.90;;;;;;5042217;28;20654;-65
2021/01/19 01:36:06;;;;;;;20.27;14.70;;;6.00;99.90;;;;;;5028512;28;20972;-64
2021/01/19 01:38:51;;;;;;;23.20;15.03;;;6.00;99.90;;;;;;5020946;28;21283;-66
2021/01/19 01:41:36;;;;;;;19.07;14.10;;;6.00;99.90;;;;;;5021819;28;20626;-64
2021/01/19 01:44:20;;;;;;;17.37;13.00;;;5.90;99.90;;;;;;5026018;28;20692;-64
2021/01/19 01:47:14;;;;;;;17.70;14.13;;;5.90;99.90;;;;;;5024971;28;21239;-64
2021/01/19 01:49:59;;;;;;;20.57;14.53;;;5.90;99.90;;;;;;5017690;28;20610;-64
2021/01/19 01:52:44;;;;;;;19.20;13.67;;;5.90;99.90;;;;;;5021437;28;20686;-64
2021/01/19 01:55:29;;;;;;;17.50;13.53;;;5.90;99.90;;;;;;5023661;28;20737;-63
2021/01/19 01:58:13;;;;;;;18.70;14.10;;;5.90;99.90;;;;;;5021871;28;20733;-65
2021/01/19 02:00:58;;;;;;;20.67;13.73;;;5.90;99.90;;;;;;5021268;28;20973;-64
2021/01/19 02:03:43;;;;;;;22.03;13.37;;;5.80;99.90;;;;;;5014123;28;21136;-65
2021/01/19 02:06:28;;;;;;;20.20;15.47;;;5.90;99.90;;;;;;5010029;28;20607;-66
2021/01/19 02:09:21;;;;;;;19.03;14.63;;;5.80;99.90;;;;;;5024080;28;20708;-65
2021/01/19 02:12:15;;;;;;;20.10;14.03;;;5.70;99.90;;;;;;5016381;28;20979;-65
2021/01/19 02:15:05;;;;;;;20.70;14.10;;;5.70;99.90;;;;;;5026759;28;20653;-64
2021/01/19 02:18:12;;;;;;;22.70;13.83;;;5.80;99.90;;;;;;5025218;28;20647;-65
2021/01/19 02:21:13;;;;;;;19.07;14.20;;;5.80;99.90;;;;;;5030436;28;20736;-64
2021/01/19 02:24:14;;;;;;;18.57;13.30;;;5.80;99.90;;;;;;5025337;28;20709;-65
2021/01/19 02:27:17;;;;;;;22.20;13.90;;;5.80;99.90;;;;;;5026836;28;20681;-68
2021/01/19 02:30:33;;;;;;;22.83;16.60;;;5.80;99.90;;;;;;5017535;28;20646;-66
2021/01/19 02:33:32;;;;;;;20.50;15.10;;;5.70;99.90;;;;;;5013718;28;20618;-64
2021/01/19 02:36:55;;;;;;;22.00;13.93;;;5.70;99.90;;;;;;5023371;28;20618;-65
2021/01/19 02:40:03;;;;;;;20.17;15.40;;;5.70;99.90;;;;;;5031746;28;20789;-65
2021/01/19 02:43:23;;;;;;;20.93;15.70;;;5.70;99.90;;;;;;5018412;28;21195;-64
2021/01/19 02:46:08;;;;;;;19.97;14.00;;;5.70;99.90;;;;;;5022598;28;20728;-65
2021/01/19 02:48:55;;;;;;;24.60;16.23;;;5.70;99.90;;;;;;5026344;28;20618;-65
2021/01/19 02:51:40;;;;;;;22.40;16.50;;;5.70;99.90;;;;;;5041031;28;21196;-66
2021/01/19 02:54:25;;;;;;;25.60;17.00;;;5.70;99.90;;;;;;5013485;28;20773;-64
2021/01/19 02:57:42;;;;;;;24.30;15.90;;;5.70;99.90;;;;;;5024705;28;20655;-65
2021/01/19 03:00:43;;;;;;;24.40;17.43;;;5.70;99.90;;;;;;5016300;28;20951;-66
2021/01/19 03:03:31;;;;;;;31.03;17.27;;;5.70;99.90;;;;;;5022396;28;21007;-64
2021/01/19 03:06:20;;;;;;;26.30;18.77;;;5.70;99.90;;;;;;5030061;28;20571;-64
2021/01/19 03:09:06;;;;;;;29.80;18.70;;;5.70;99.90;;;;;;5029627;28;20762;-66
2021/01/19 03:11:55;;;;;;;27.43;18.60;;;5.70;99.90;;;;;;5019607;28;21039;-65
2021/01/19 03:14:43;;;;;;;24.83;18.50;;;5.70;99.90;;;;;;5022847;28;20650;-64
2021/01/19 03:17:27;;;;;;;26.67;18.00;;;5.90;99.90;;;;;;5026491;28;21208;-65
2021/01/19 03:20:14;;;;;;;26.03;18.57;;;5.80;99.90;;;;;;5029437;28;20595;-64
2021/01/19 03:22:59;;;;;;;29.50;18.70;;;5.80;99.90;;;;;;5019122;28;20671;-64
2021/01/19 03:25:44;;;;;;;27.17;19.00;;;5.80;99.90;;;;;;5019951;28;20627;-64
2021/01/19 03:28:28;;;;;;;28.40;20.40;;;5.80;99.90;;;;;;5024267;28;20669;-64
2021/01/19 03:31:13;;;;;;;27.03;18.87;;;5.80;99.90;;;;;;5027706;28;20661;-64
2021/01/19 03:33:57;;;;;;;28.13;19.37;;;5.90;99.90;;;;;;5025628;28;20626;-64
2021/01/19 03:36:42;;;;;;;25.87;18.57;;;5.80;99.90;;;;;;5025266;28;20595;-64
2021/01/19 03:39:28;;;;;;;27.27;19.33;;;5.80;99.90;;;;;;5023747;28;20623;-65
2021/01/19 03:42:16;;;;;;;29.47;20.20;;;5.80;99.90;;;;;;5020669;28;21263;-65
2021/01/19 03:45:00;;;;;;;29.40;19.53;;;5.80;99.90;;;;;;5019697;28;21221;-65
2021/01/19 03:47:45;;;;;;;29.87;19.77;;;5.90;99.90;;;;;;5025817;28;20670;-65
2021/01/19 03:50:29;;;;;;;25.00;18.87;;;5.80;99.90;;;;;;5020943;28;20623;-64
2021/01/19 03:53:14;;;;;;;27.60;18.80;;;5.80;99.90;;;;;;5018909;28;20621;-65
2021/01/19 03:55:58;;;;;;;32.57;20.10;;;5.80;99.90;;;;;;5027959;28;21211;-65
2021/01/19 03:58:43;;;;;;;27.80;20.17;;;5.80;99.90;;;;;;5027962;28;20761;-65
2021/01/19 04:01:28;;;;;;;28.53;20.90;;;5.80;99.90;;;;;;5025532;28;20766;-64
2021/01/19 04:04:12;;;;;;;27.30;19.47;;;5.80;99.90;;;;;;5015328;28;21286;-65
2021/01/19 04:06:56;;;;;;;32.70;20.40;;;5.80;99.90;;;;;;5023594;28;20650;-65
2021/01/19 04:09:41;;;;;;;26.80;19.83;;;5.80;99.90;;;;;;5023162;28;20665;-64
2021/01/19 04:12:25;;;;;;;26.53;19.20;;;5.70;99.90;;;;;;5025370;28;20739;-64
2021/01/19 04:15:11;;;;;;;31.60;18.57;;;5.80;99.90;;;;;;5013467;28;20658;-64
2021/01/19 04:17:55;;;;;;;27.97;19.77;;;5.90;99.90;;;;;;5017348;28;20675;-65
2021/01/19 04:20:40;;;;;;;28.53;20.23;;;5.90;99.90;;;;;;5027358;28;20645;-66
2021/01/19 04:23:24;;;;;;;27.40;20.17;;;5.90;99.90;;;;;;5021774;28;20654;-65
2021/01/19 04:26:11;;;;;;;33.27;20.70;;;5.90;99.90;;;;;;5027026;28;20584;-64
2021/01/19 04:28:56;;;;;;;28.70;19.33;;;5.80;99.90;;;;;;5015868;28;21204;-65
2021/01/19 04:31:40;;;;;;;26.50;18.73;;;5.80;99.90;;;;;;5032993;28;20584;-66
2021/01/19 04:34:25;;;;;;;31.43;19.90;;;5.80;99.90;;;;;;5023429;28;21263;-65
2021/01/19 04:37:10;;;;;;;27.80;19.20;;;5.70;99.90;;;;;;5023213;28;20646;-64
2021/01/19 04:39:55;;;;;;;30.63;20.17;;;5.70;99.90;;;;;;5027178;28;20697;-66
2021/01/19 04:42:39;;;;;;;24.23;17.40;;;5.70;99.90;;;;;;5025661;28;20842;-65
2021/01/19 04:45:24;;;;;;;29.20;17.60;;;5.70;99.90;;;;;;5013437;28;20635;-64
2021/01/19 04:48:10;;;;;;;29.90;19.20;;;5.70;99.90;;;;;;5018668;28;21283;-65
2021/01/19 04:50:54;;;;;;;26.90;19.67;;;5.70;99.90;;;;;;5018835;28;21239;-65
2021/01/19 04:53:43;;;;;;;23.67;17.47;;;5.70;99.90;;;;;;5021694;28;20635;-65
2021/01/19 04:56:28;;;;;;;25.10;17.63;;;5.70;99.90;;;;;;5014072;28;20745;-65
2021/01/19 04:59:13;;;;;;;26.80;19.40;;;5.70;99.90;;;;;;5023793;28;20618;-65
2021/01/19 05:02:26;;;;;;;30.53;17.73;;;5.70;99.90;;;;;;5035404;28;20739;-65
2021/01/19 05:05:38;;;;;;;27.53;17.27;;;5.60;99.90;;;;;;5010516;28;20789;-65
2021/01/19 05:08:25;;;;;;;22.20;15.80;;;5.70;99.90;;;;;;5029024;28;21018;-64
2021/01/19 05:11:30;;;;;;;22.50;15.60;;;5.60;99.90;;;;;;5011236;28;21188;-64
2021/01/19 05:14:22;;;;;;;20.87;15.40;;;5.60;99.90;;;;;;5007612;28;20631;-62
2021/01/19 05:17:06;;;;;;;18.23;13.90;;;5.50;99.90;;;;;;5019510;28;20764;-62
2021/01/19 05:19:51;;;;;;;17.33;12.20;;;5.50;99.90;;;;;;5017782;28;20586;-62
2021/01/19 05:22:36;;;;;;;20.33;12.83;;;5.50;99.90;;;;;;5017560;28;20623;-62
2021/01/19 05:25:24;;;;;;;16.80;12.70;;;5.40;99.90;;;;;;5016110;28;20689;-63
2021/01/19 05:28:08;;;;;;;15.97;11.97;;;5.40;99.90;;;;;;5025993;28;20762;-62
2021/01/19 05:30:53;;;;;;;15.10;11.37;;;5.40;99.90;;;;;;5018919;28;20619;-61
2021/01/19 05:33:37;;;;;;;14.97;11.00;;;5.40;99.90;;;;;;5021425;28;21030;-61
2021/01/19 05:36:44;;;;;;;15.30;11.33;;;5.40;99.90;;;;;;5023117;28;20942;-62
2021/01/19 05:39:34;;;;;;;15.80;11.47;;;5.40;99.90;;;;;;5011096;28;20599;-62
2021/01/19 05:42:30;;;;;;;15.00;11.50;;;5.30;99.90;;;;;;5034151;28;20586;-62
2021/01/19 05:45:21;;;;;;;11.93;10.00;;;5.40;99.90;;;;;;5021882;28;21228;-62
2021/01/19 05:48:23;;;;;;;12.50;10.00;;;5.30;99.90;;;;;;5019619;28;20650;-62
2021/01/19 05:51:17;;;;;;;13.13;10.03;;;5.30;99.90;;;;;;5020252;28;20801;-62
2021/01/19 05:54:03;;;;;;;12.30;10.03;;;5.30;99.90;;;;;;5018287;28;21210;-63
2021/01/19 05:56:50;;;;;;;13.10;10.30;;;5.20;99.90;;;;;;5020585;28;20654;-62
2021/01/19 05:59:39;;;;;;;12.67;10.40;;;5.20;99.90;;;;;;5025550;28;20639;-62
2021/01/19 06:02:41;;;;;;;12.93;9.70;;;5.10;99.90;;;;;;5026920;28;20716;-62
2021/01/19 06:05:31;;;;;;;13.17;9.83;;;5.10;99.90;;;;;;5013409;28;20774;-62
2021/01/19 06:08:23;;;;;;;11.40;8.97;;;5.10;99.90;;;;;;5032993;28;20661;-62
2021/01/19 06:11:08;;;;;;;11.47;9.53;;;5.00;99.90;;;;;;5016576;28;20607;-62
2021/01/19 06:13:54;;;;;;;11.87;9.70;;;5.10;99.90;;;;;;5025223;28;20665;-61
2021/01/19 06:16:38;;;;;;;10.23;8.63;;;5.10;99.90;;;;;;5021814;28;20618;-62
2021/01/19 06:19:30;;;;;;;11.77;9.13;;;5.20;99.90;;;;;;5024543;28;20642;-62
2021/01/19 06:22:17;;;;;;;11.80;9.23;;;5.10;99.90;;;;;;5023375;28;20946;-62
2021/01/19 06:25:04;;;;;;;10.90;8.90;;;5.20;99.90;;;;;;5034935;28;21238;-64
2021/01/19 06:27:49;;;;;;;12.93;9.07;;;5.10;99.90;;;;;;5028122;28;21932;-62
2021/01/19 06:30:33;;;;;;;11.50;9.50;;;5.10;99.90;;;;;;5026052;28;20689;-62
2021/01/19 06:33:27;;;;;;;11.20;9.57;;;5.10;99.90;;;;;;5025327;28;20582;-62
2021/01/19 06:36:12;;;;;;;10.80;9.70;;;5.10;99.90;;;;;;5021054;28;20714;-62
2021/01/19 06:38:57;;;;;;;14.80;10.50;;;5.00;99.90;;;;;;5034180;28;20669;-63
2021/01/19 06:41:48;;;;;;;12.07;9.80;;;5.00;99.90;;;;;;5024699;28;20672;-62
2021/01/19 06:44:37;;;;;;;14.37;10.47;;;5.00;99.90;;;;;;5033640;28;21427;-62
2021/01/19 06:47:22;;;;;;;11.83;9.43;;;5.10;99.90;;;;;;5013275;28;20662;-62
2021/01/19 06:50:10;;;;;;;11.37;9.50;;;5.00;99.90;;;;;;5022167;28;20622;-62
2021/01/19 06:53:33;;;;;;;11.50;9.63;;;5.10;99.90;;;;;;5017024;28;20646;-61
2021/01/19 06:56:29;;;;;;;11.43;8.67;;;5.00;99.90;;;;;;5023252;28;20645;-61
2021/01/19 06:59:33;;;;;;;11.03;9.30;;;4.90;99.90;;;;;;5020429;28;20596;-62
2021/01/19 07:02:17;;;;;;;10.70;9.57;;;4.90;99.90;;;;;;5023086;28;20673;-62
2021/01/19 07:05:11;;;;;;;10.90;8.90;;;5.00;99.90;;;;;;5005843;28;20684;-62
2021/01/19 07:08:17;;;;;;;10.20;9.10;;;5.00;99.90;;;;;;5009450;28;20670;-61
2021/01/19 07:11:33;;;;;;;10.90;9.80;;;5.00;99.90;;;;;;5013456;28;20661;-60
2021/01/19 07:14:43;;;;;;;13.27;10.50;;;5.00;99.90;;;;;;5012285;28;21702;-62
2021/01/19 07:17:57;;;;;;;10.73;9.57;;;5.00;99.90;;;;;;5008589;28;20711;-62
2021/01/19 07:21:03;;;;;;;10.57;9.03;;;5.00;99.90;;;;;;5037426;28;20587;-62
2021/01/19 07:24:07;;;;;;;11.50;9.27;;;4.90;99.90;;;;;;5013144;28;20748;-62
2021/01/19 07:26:53;;;;;;;11.43;10.13;;;4.90;99.90;;;;;;5025613;28;20681;-63
2021/01/19 07:29:38;;;;;;;11.37;10.17;;;4.90;99.90;;;;;;5019543;28;20637;-63
2021/01/19 07:32:27;;;;;;;13.20;9.23;;;4.90;99.90;;;;;;5018880;28;20661;-66
2021/01/19 07:35:14;;;;;;;12.00;10.57;;;5.00;99.90;;;;;;5017998;28;20709;-64
2021/01/19 07:37:59;;;;;;;10.60;9.03;;;5.00;99.90;;;;;;5035021;28;20658;-66
2021/01/19 07:40:45;;;;;;;11.07;9.87;;;4.90;99.90;;;;;;5022667;28;21184;-64
2021/01/19 07:43:34;;;;;;;11.80;9.60;;;4.90;99.90;;;;;;5022209;28;20730;-64
2021/01/19 07:46:24;;;;;;;11.83;10.00;;;4.90;99.90;;;;;;5024468;28;20625;-68
2021/01/19 07:49:09;;;;;;;11.83;10.20;;;4.90;99.90;;;;;;5016760;28;20961;-65
2021/01/19 07:51:54;;;;;;;14.50;10.07;;;4.90;99.90;;;;;;5016376;28;20630;-65
2021/01/19 07:54:39;;;;;;;11.90;10.37;;;4.90;99.90;;;;;;5018636;28;20732;-65
2021/01/19 07:57:29;;;;;;;10.50;8.97;;;4.90;99.90;;;;;;5019844;28;20650;-67
2021/01/19 08:00:30;;;;;;;10.73;9.27;;;4.80;99.90;;;;;;5021314;28;20677;-65
2021/01/19 08:03:15;;;;;;;11.00;9.27;;;4.80;99.90;;;;;;5019941;28;20666;-66
2021/01/19 08:06:10;;;;;;;12.40;9.30;;;4.80;99.90;;;;;;5020059;28;20679;-68
2021/01/19 08:08:54;;;;;;;10.50;8.97;;;4.80;99.90;;;;;;5019624;28;20595;-66
2021/01/19 08:11:40;;;;;;;9.80;8.53;;;4.80;99.90;;;;;;5015114;28;20591;-69
2021/01/19 08:14:33;;;;;;;11.30;9.07;;;4.80;99.90;;;;;;5016671;28;21178;-64
2021/01/19 08:17:18;;;;;;;8.73;7.93;;;4.80;99.90;;;;;;5018199;28;20654;-67
2021/01/19 08:20:09;;;;;;;9.93;8.13;;;4.70;99.90;;;;;;5018335;28;20595;-65
2021/01/19 08:22:55;;;;;;;8.77;7.87;;;4.70;99.90;;;;;;5011963;28;20662;-67
2021/01/19 08:25:41;;;;;;;7.93;6.90;;;4.70;99.90;;;;;;4993659;28;20650;-66
2021/01/19 08:28:26;;;;;;;9.80;6.80;;;4.70;99.90;;;;;;4989148;28;21328;-67
2021/01/19 08:31:15;;;;;;;7.20;6.50;;;4.70;99.90;;;;;;4993762;28;20606;-65
2021/01/19 08:34:01;;;;;;;7.80;7.00;;;4.80;99.90;;;;;;4987585;28;20650;-67
2021/01/19 08:36:47;;;;;;;9.73;6.53;;;4.80;99.90;;;;;;4984859;28;20653;-71
2021/01/19 08:39:31;;;;;;;9.67;7.30;;;4.80;99.90;;;;;;4994956;28;20649;-66
2021/01/19 08:42:21;;;;;;;8.20;6.70;;;4.80;99.90;;;;;;5024622;28;20583;-65
2021/01/19 08:45:06;;;;;;;6.33;5.73;;;4.80;99.90;;;;;;5009693;28;20657;-65
2021/01/19 08:47:53;;;;;;;6.23;5.07;;;4.70;99.90;;;;;;5017522;28;20669;-64
2021/01/19 08:50:40;;;;;;;6.47;5.17;;;4.80;99.90;;;;;;5012946;28;20595;-65
2021/01/19 08:53:28;;;;;;;5.40;4.90;;;4.70;99.90;;;;;;5015140;28;20613;-66
2021/01/19 08:56:17;;;;;;;5.50;4.87;;;4.70;99.90;;;;;;5030961;28;20627;-65
2021/01/19 08:59:02;;;;;;;7.50;5.37;;;4.70;99.90;;;;;;5031371;28;20677;-67
2021/01/19 09:01:50;;;;;;;6.77;5.10;;;4.70;99.90;;;;;;5016996;28;20723;-68
2021/01/19 09:04:34;;;;;;;4.93;4.40;;;4.70;99.90;;;;;;5011248;28;20662;-65
2021/01/19 09:07:28;;;;;;;4.47;4.07;;;4.70;99.90;;;;;;5010097;28;20658;-68
2021/01/19 09:10:22;;;;;;;5.97;4.13;;;4.70;99.90;;;;;;5029427;28;21284;-69
2021/01/19 09:13:07;;;;;;;4.30;3.90;;;4.80;99.90;;;;;;5013820;28;20754;-69
2021/01/19 09:15:52;;;;;;;6.10;4.27;;;4.70;99.90;;;;;;5012536;28;21031;-66
2021/01/19 09:18:36;;;;;;;4.00;3.40;;;4.70;99.90;;;;;;5011978;28;21129;-67
2021/01/19 09:21:22;;;;;;;4.40;3.30;;;4.70;99.90;;;;;;5018926;28;20610;-64
2021/01/19 09:24:17;;;;;;;5.10;4.17;;;4.70;99.90;;;;;;5013829;28;20701;-65
2021/01/19 09:27:04;;;;;;;3.57;3.00;;;4.80;99.90;;;;;;5025974;28;20813;-66
2021/01/19 09:29:48;;;;;;;3.50;3.20;;;4.80;99.90;;;;;;5021730;28;20582;-68
2021/01/19 09:32:33;;;;;;;2.70;2.50;;;4.90;99.90;;;;;;5013110;28;21078;-65
2021/01/19 09:35:18;;;;;;;3.20;3.00;;;4.80;99.90;;;;;;5013750;28;20709;-64
2021/01/19 09:38:03;;;;;;;2.90;2.70;;;4.80;99.90;;;;;;5017195;28;21033;-69
2021/01/19 09:40:48;;;;;;;4.13;2.90;;;4.80;99.90;;;;;;5014561;28;20595;-69
2021/01/19 09:43:33;;;;;;;2.57;2.37;;;4.80;99.90;;;;;;5015793;28;20658;-66
2021/01/19 09:46:23;;;;;;;2.73;2.40;;;4.70;99.90;;;;;;5013956;28;20677;-65
2021/01/19 09:49:08;;;;;;;2.60;2.13;;;4.60;99.90;;;;;;5015634;28;20646;-63
2021/01/19 09:51:53;;;;;;;3.13;2.83;;;4.60;99.90;;;;;;5020644;28;20633;-67
2021/01/19 09:54:37;;;;;;;2.87;2.67;;;4.60;99.90;;;;;;5023923;28;21356;-66
2021/01/19 09:57:25;;;;;;;3.63;2.43;;;4.70;99.90;;;;;;5022571;28;20687;-64
2021/01/19 10:00:11;;;;;;;2.97;2.73;;;4.70;99.90;;;;;;5020887;28;20618;-64
2021/01/19 10:02:56;;;;;;;3.50;2.90;;;4.70;99.90;;;;;;5018003;28;20618;-64
2021/01/19 10:05:41;;;;;;;2.97;2.47;;;4.70;99.90;;;;;;5016034;28;20658;-65
2021/01/19 10:08:26;;;;;;;2.60;2.40;;;4.70;99.90;;;;;;5018829;28;20662;-66
2021/01/19 10:11:10;;;;;;;3.30;3.00;;;4.80;99.90;;;;;;5020394;28;20992;-65
2021/01/19 10:13:55;;;;;;;3.70;3.40;;;4.80;99.90;;;;;;5018264;28;20634;-68
2021/01/19 10:16:50;;;;;;;4.30;3.40;;;4.90;99.90;;;;;;5019981;28;20604;-67
2021/01/19 10:19:36;;;;;;;2.90;2.70;;;4.90;99.90;;;;;;5032357;28;20702;-64
2021/01/19 10:22:24;;;;;;;3.70;3.10;;;4.90;99.90;;;;;;5016882;28;20602;-64
2021/01/19 10:25:11;;;;;;;3.87;3.20;;;4.90;99.90;;;;;;5020552;28;20661;-67
2021/01/19 10:28:01;;;;;;;2.77;2.57;;;4.90;99.90;;;;;;5015131;28;20697;-69
2021/01/19 10:30:46;;;;;;;3.63;3.20;;;4.90;99.90;;;;;;5016034;28;20637;-65
2021/01/19 10:33:39;;;;;;;3.43;3.00;;;4.80;99.90;;;;;;5024558;28;21681;-66
2021/01/19 10:36:25;;;;;;;3.87;2.60;;;4.80;99.90;;;;;;5024886;28;20713;-64
2021/01/19 10:39:10;;;;;;;2.80;2.60;;;4.80;99.90;;;;;;5023776;28;20635;-66
2021/01/19 10:41:57;;;;;;;2.63;2.43;;;5.00;99.90;;;;;;5027016;28;20665;-64
2021/01/19 10:44:52;;;;;;;2.90;2.20;;;4.90;99.90;;;;;;5021807;28;20677;-65
2021/01/19 10:47:40;;;;;;;3.90;3.60;;;5.00;99.90;;;;;;5025459;28;20665;-64
2021/01/19 10:50:29;;;;;;;2.40;2.17;;;5.00;99.90;;;;;;5032168;28;21208;-67
2021/01/19 10:53:13;;;;;;;2.60;2.30;;;5.00;99.90;;;;;;5014531;28;20629;-64
2021/01/19 10:55:58;;;;;;;3.70;2.57;;;5.00;99.90;;;;;;5021684;28;20646;-67
2021/01/19 10:58:42;;;;;;;4.80;2.60;;;5.00;99.90;;;;;;5024686;28;21047;-65
2021/01/19 11:01:27;;;;;;;2.60;2.40;;;5.00;99.90;;;;;;5019721;28;20606;-64
2021/01/19 11:04:12;;;;;;;4.63;3.00;;;5.10;99.90;;;;;;5017319;28;20673;-66
2021/01/19 11:06:57;;;;;;;3.00;2.70;;;5.20;99.90;;;;;;5024252;28;20650;-65
2021/01/19 11:09:44;;;;;;;3.50;3.20;;;5.20;99.90;;;;;;5022262;28;20590;-65
2021/01/19 11:12:28;;;;;;;3.17;2.77;;;5.20;99.90;;;;;;5012924;28;21177;-68
2021/01/19 11:15:14;;;;;;;3.90;3.00;;;5.20;99.90;;;;;;5003532;28;21116;-66
2021/01/19 11:17:58;;;;;;;3.50;3.10;;;5.20;99.90;;;;;;5000050;28;20677;-67
2021/01/19 11:20:43;;;;;;;3.07;2.87;;;5.20;99.90;;;;;;5006774;28;22401;-64
2021/01/19 11:23:27;;;;;;;4.30;3.30;;;5.20;99.90;;;;;;5020744;28;21033;-65
2021/01/19 11:26:14;;;;;;;5.80;3.73;;;5.30;99.90;;;;;;5019061;28;20673;-69
2021/01/19 11:28:59;;;;;;;3.33;3.03;;;5.30;99.90;;;;;;5037346;28;21025;-65
2021/01/19 11:31:43;;;;;;;3.57;3.27;;;5.30;99.90;;;;;;5018599;28;20582;-67
2021/01/19 11:34:28;;;;;;;3.60;3.30;;;5.40;99.90;;;;;;5031815;28;21014;-68
2021/01/19 11:37:13;;;;;;;3.90;3.60;;;5.40;99.90;;;;;;5023462;28;20762;-64
2021/01/19 11:39:58;;;;;;;4.00;3.60;;;5.50;99.90;;;;;;5019516;28;20626;-67
2021/01/19 11:42:42;;;;;;;4.50;4.10;;;5.50;99.90;;;;;;5025238;28;20603;-65
2021/01/19 11:45:28;;;;;;;5.07;4.00;;;5.50;99.90;;;;;;5028895;28;21139;-66
2021/01/19 11:48:12;;;;;;;4.33;3.93;;;5.50;99.90;;;;;;5019808;28;20793;-65
2021/01/19 11:50:57;;;;;;;4.80;4.40;;;5.60;99.90;;;;;;5022050;28;20669;-66
2021/01/19 11:53:41;;;;;;;5.83;4.60;;;5.60;99.90;;;;;;5019352;28;20777;-66
2021/01/19 11:56:37;;;;;;;5.10;4.70;;;5.70;99.90;;;;;;5017967;28;20602;-68
2021/01/19 11:59:25;;;;;;;4.80;4.40;;;5.70;99.90;;;;;;5026708;28;20611;-65
2021/01/19 12:02:09;;;;;;;5.03;4.53;;;5.70;99.90;;;;;;5022072;28;20604;-69
2021/01/19 12:04:53;;;;;;;5.43;4.93;;;5.80;99.90;;;;;;5021454;28;20677;-66
2021/01/19 12:07:40;;;;;;;5.73;5.20;;;5.80;99.90;;;;;;5016894;28;20646;-66
2021/01/19 12:10:25;;;;;;;5.43;5.03;;;5.80;99.90;;;;;;5025486;28;20617;-65
2021/01/19 12:13:09;;;;;;;5.70;5.20;;;5.80;99.90;;;;;;5021822;28;20614;-66
2021/01/19 12:15:54;;;;;;;5.70;5.20;;;5.80;99.90;;;;;;5021506;28;20612;-66
2021/01/19 12:18:39;;;;;;;5.07;4.67;;;5.80;99.90;;;;;;5024390;28;20658;-66
2021/01/19 12:21:23;;;;;;;5.83;5.33;;;5.70;99.90;;;;;;5023340;28;20693;-70
2021/01/19 12:24:08;;;;;;;7.20;5.30;;;5.90;99.90;;;;;;5021225;28;20736;-67
2021/01/19 12:26:57;;;;;;;5.90;5.27;;;5.90;99.90;;;;;;5016876;28;21682;-70
2021/01/19 12:29:42;;;;;;;6.20;5.70;;;5.90;99.90;;;;;;5030595;28;20595;-67
2021/01/19 12:32:26;;;;;;;6.20;5.60;;;6.00;99.90;;;;;;5020376;28;20957;-66
2021/01/19 12:35:11;;;;;;;7.20;6.60;;;6.00;99.90;;;;;;5017360;28;20666;-65
2021/01/19 12:37:55;;;;;;;7.80;6.00;;;6.00;99.90;;;;;;5025849;28;20659;-66
2021/01/19 12:40:40;;;;;;;5.90;5.40;;;6.00;99.90;;;;;;5021216;28;20614;-67
2021/01/19 12:43:25;;;;;;;6.03;5.43;;;6.00;99.90;;;;;;5016770;28;20598;-66
2021/01/19 12:46:11;;;;;;;6.50;5.90;;;6.10;99.90;;;;;;5036398;28;20615;-66
2021/01/19 12:48:55;;;;;;;6.30;5.67;;;6.20;99.90;;;;;;4996524;28;20692;-70
2021/01/19 12:51:40;;;;;;;6.90;6.20;;;6.20;99.90;;;;;;4990498;28;20604;-67
2021/01/19 12:54:25;;;;;;;6.50;5.87;;;6.20;99.90;;;;;;4996267;28;20650;-68
2021/01/19 12:57:13;;;;;;;6.47;5.93;;;6.30;99.90;;;;;;4993210;28;20658;-67
2021/01/19 12:59:58;;;;;;;6.20;5.70;;;6.30;99.90;;;;;;4992376;28;20671;-68
2021/01/19 13:02:43;;;;;;;6.53;5.93;;;6.30;99.90;;;;;;5011313;28;20595;-68
2021/01/19 13:05:27;;;;;;;6.07;5.47;;;6.40;99.90;;;;;;5012215;28;20701;-67
2021/01/19 13:08:11;;;;;;;5.70;5.20;;;6.50;99.90;;;;;;5011349;28;20662;-67
2021/01/19 13:10:56;;;;;;;6.60;6.00;;;6.50;99.90;;;;;;5007986;28;20719;-66
2021/01/19 13:13:41;;;;;;;5.83;5.33;;;6.50;99.90;;;;;;5030509;28;20638;-67
2021/01/19 13:16:27;;;;;;;6.03;5.43;;;6.50;99.90;;;;;;5020435;28;20645;-67
2021/01/19 13:19:12;;;;;;;5.70;5.13;;;6.50;99.90;;;;;;5016309;28;21747;-67
2021/01/19 13:22:00;;;;;;;6.27;5.67;;;6.50;99.90;;;;;;4992237;28;20623;-67
2021/01/19 13:24:45;;;;;;;5.83;5.33;;;6.40;99.90;;;;;;4978931;28;20663;-68
2021/01/19 13:27:31;;;;;;;5.83;5.33;;;6.50;99.90;;;;;;4986998;28;20762;-66
2021/01/19 13:30:16;;;;;;;6.33;5.83;;;6.50;99.90;;;;;;5009891;28;20590;-66
2021/01/19 13:33:01;;;;;;;5.83;5.33;;;6.50;99.90;;;;;;5018371;28;20616;-68
2021/01/19 13:35:46;;;;;;;6.40;5.87;;;6.40;99.90;;;;;;5018265;28;20657;-66
2021/01/19 13:38:30;;;;;;;6.03;5.43;;;6.40;99.90;;;;;;5035722;22;20670;-69
2021/01/19 13:41:18;;;;;;;8.10;7.40;;;6.60;99.90;;;;;;4996898;28;21201;-67
2021/01/19 13:44:03;;;;;;;6.70;6.10;;;6.60;99.90;;;;;;5017341;28;20224;-67
2021/01/19 13:46:51;;;;;;;7.27;6.57;;;6.90;99.90;;;;;;5006747;28;20623;-67
2021/01/19 13:49:36;;;;;;;6.37;5.77;;;6.90;99.90;;;;;;4996491;28;20644;-68
2021/01/19 13:52:21;;;;;;;6.77;6.10;;;6.90;99.90;;;;;;4990401;28;20615;-69
2021/01/19 13:55:06;;;;;;;6.20;5.60;;;6.90;99.90;;;;;;4985168;28;20641;-69
2021/01/19 13:57:51;;;;;;;6.83;6.20;;;7.00;99.90;;;;;;4989413;28;20585;-69
2021/01/19 14:00:36;;;;;;;6.30;5.70;;;6.90;99.90;;;;;;5001068;28;21273;-69
2021/01/19 14:03:22;;;;;;;7.17;6.47;;;6.90;99.90;;;;;;5006317;28;21182;-69
2021/01/19 14:06:11;;;;;;;6.60;5.90;;;7.00;99.90;;;;;;4993009;28;20589;-70
2021/01/19 14:08:58;;;;;;;6.53;5.93;;;7.00;99.90;;;;;;4981118;28;20655;-70
2021/01/19 14:11:43;;;;;;;6.17;5.57;;;7.10;99.90;;;;;;4986012;28;20692;-71
2021/01/19 14:14:28;;;;;;;6.60;6.10;;;7.10;99.90;;;;;;4985367;28;20673;-68
2021/01/19 14:17:13;;;;;;;5.80;5.30;;;7.00;99.90;;;;;;4998450;28;20775;-69
2021/01/19 14:19:58;;;;;;;6.60;5.53;;;7.00;99.90;;;;;;4992921;28;20675;-68
2021/01/19 14:22:43;;;;;;;8.07;6.20;;;7.00;99.90;;;;;;4970392;28;20776;-69
2021/01/19 14:25:27;;;;;;;7.07;6.40;;;7.10;99.90;;;;;;4983468;28;20985;-68
2021/01/19 14:28:12;;;;;;;6.40;5.80;;;7.10;99.90;;;;;;4979128;28;20688;-71
2021/01/19 14:30:57;;;;;;;6.70;6.00;;;7.10;99.90;;;;;;4978546;28;20595;-69
2021/01/19 14:33:43;;;;;;;7.63;5.80;;;7.00;99.90;;;;;;4994961;28;21326;-69
2021/01/19 14:36:28;;;;;;;7.30;6.30;;;7.10;99.90;;;;;;4978034;28;20687;-69